Pacific - Georgia Basin: Past 24 Hour Conditions

 

Sechelt

09:00 PM PDT 19 October 2014
This table is a summary of hourly weather conditions for the past 24 hours.
Date / Time
(PDT)
Wind(knots) Conditions Visibility(km) Pressure(kPa) Air tempC) Relative humidity(%) Dew pointC)
19 October 2014
21:00 E 1 N/A N/A 100.4 14 94 13
20:00 calm N/A N/A 100.4 14 94 13
19:00 SE 2 N/A N/A 100.4 15 88 13
18:00 ESE 5 N/A N/A 100.3 18 68 12
17:00 ESE 11 gust 16 N/A N/A 100.3 18 66 12
16:00 ESE 12 gust 18 N/A N/A 100.2 19 61 11
15:00 ESE 14 gust 20 N/A N/A 100.2 20 60 11
14:00 SE 12 gust 20 N/A N/A 100.4 20 59 11
13:00 ESE 10 gust 21 N/A N/A 100.4 19 57 11
12:00 ESE 11 gust 17 N/A N/A 100.4 18 63 11
11:00 SE 10 N/A N/A 100.5 14 82 11
10:00 SSE 3 N/A N/A 100.4 15 80 12
9:00 calm N/A N/A 100.4 13 89 12
8:00 E 2 N/A N/A 100.5 13 90 11
7:00 NW 4 N/A N/A 100.5 13 93 12
6:00 NNW 4 N/A N/A 100.5 13 91 12
5:00 SE 6 N/A N/A 100.6 14 85 12
4:00 E 6 N/A N/A 100.7 18 65 12
3:00 ESE 6 N/A N/A 100.8 19 64 12
2:00 E 8 N/A N/A 100.7 19 63 11
1:00 ESE 6 N/A N/A 100.9 18 65 12
0:00 ESE 6 N/A N/A 100.9 18 69 12
18 October 2014
23:00 ESE 10 gust 17 N/A N/A 100.9 18 70 12
22:00 ESE 9 gust 19 N/A N/A 100.9 17 65 11
21:00 calm N/A N/A 101.0 15 74 10
 
Map of Pacific - Georgia Basin marine weather areas Tsawwassen Ferry Terminal Sentry Shoal - 46131 Halibut Bank - 46146 La Perouse Bank - 46206 Discovery Island Esquimalt Harbour Kelp Reefs Malahat Race Rocks Lightstation Saturna Island Sheringham Point University of Victoria Victoria Gonzales Victoria Int'l Airport Ballenas Islands Campbell River Airport Comox Airport Entrance Island Fanny Island Nanaimo Airport Sisters Islets Estevan Point Tofino Airport Grief Point Powell River Airport Sechelt Point Atkinson Sand Heads Lightstation Vancouver Harbour Vancouver Int'l Airport West Vancouver Port Alberni Howe Sound - Pam Rocks Squamish Airport